createdAt,value
2022-08-04T00:02:15.771Z,6.586656
2022-08-04T00:07:17.204Z,7.005452
2022-08-04T00:12:18.736Z,6.733886
2022-08-04T00:17:20.480Z,8.11963
2022-08-04T00:22:22.734Z,6.976318
2022-08-04T00:27:24.150Z,7.10915
2022-08-04T00:32:34.135Z,7.549738
2022-08-04T00:37:36.107Z,6.831424
2022-08-04T00:42:37.546Z,6.616658
2022-08-04T00:47:51.178Z,7.793052
2022-08-04T00:52:52.932Z,8.602582
2022-08-04T00:57:55.732Z,8.874272
2022-08-04T01:02:57.401Z,8.441498
2022-08-04T01:07:58.865Z,8.103902
2022-08-04T01:13:00.447Z,8.09492
2022-08-04T01:18:02.119Z,7.872936
2022-08-04T01:23:03.590Z,7.74142
2022-08-04T01:28:05.049Z,8.01813
2022-08-04T01:33:08.100Z,7.985468
2022-08-04T01:38:18.311Z,7.726574
2022-08-04T01:43:23.160Z,7.61654
2022-08-04T01:48:24.932Z,7.36013
2022-08-04T01:53:26.378Z,7.382928
2022-08-04T01:58:27.872Z,6.881888
2022-08-04T02:04:20.873Z,7.452338
2022-08-04T02:09:24.778Z,7.397922
2022-08-04T02:14:26.260Z,7.49618
2022-08-04T02:19:28.134Z,7.01677
2022-08-04T02:24:29.795Z,6.422354
2022-08-04T02:29:32.181Z,7.249052
2022-08-04T02:34:34.394Z,6.482944
2022-08-04T02:39:41.514Z,7.00016
2022-08-04T02:44:50.368Z,5.930124
2022-08-04T02:49:52.064Z,6.744918
2022-08-04T02:54:54.641Z,7.10607
2022-08-04T02:59:56.406Z,6.812602
2022-08-04T03:04:58.119Z,6.522228
2022-08-04T03:09:59.698Z,6.65506
2022-08-04T03:15:01.362Z,6.866718
2022-08-04T03:20:03.004Z,6.696094
2022-08-04T03:25:04.558Z,6.709338
2022-08-04T03:30:06.065Z,6.98632
2022-08-04T03:35:07.863Z,7.354528
2022-08-04T03:40:10.695Z,7.86014
2022-08-04T03:45:23.032Z,7.550186
2022-08-04T03:50:25.828Z,7.532532
2022-08-04T03:55:27.461Z,7.498106
2022-08-04T04:00:28.996Z,7.79186
2022-08-04T04:05:32.981Z,7.51443
2022-08-04T04:10:43.306Z,7.025752
2022-08-04T04:15:48.223Z,7.037666
2022-08-04T04:20:51.678Z,7.02487
2022-08-04T04:25:53.244Z,7.079148
2022-08-04T04:30:54.688Z,7.099448
2022-08-04T04:35:56.434Z,7.41939
2022-08-04T04:40:57.963Z,7.568708
2022-08-04T04:45:59.431Z,7.85307
2022-08-04T04:51:01.185Z,7.817328
2022-08-04T04:56:02.744Z,8.030044
2022-08-04T05:01:04.312Z,8.44443
2022-08-04T05:06:06.359Z,8.338954
2022-08-04T05:11:07.920Z,8.665084
2022-08-04T05:16:09.478Z,8.436926
2022-08-04T05:21:11.100Z,8.819274
2022-08-04T05:26:12.611Z,8.245406
2022-08-04T05:31:14.101Z,8.556962
2022-08-04T05:36:19.177Z,8.41972
2022-08-04T05:41:32.137Z,8.659358
2022-08-04T05:46:54.562Z,7.902628
2022-08-04T05:51:56.334Z,7.592078
2022-08-04T05:56:57.765Z,8.324518
2022-08-04T06:01:59.329Z,8.561496
2022-08-04T06:07:01.024Z,8.106958
2022-08-04T06:12:04.380Z,8.245082
2022-08-04T06:17:06.220Z,8.352198
2022-08-04T06:23:36.049Z,7.961044
2022-08-04T06:28:55.428Z,8.095354
2022-08-04T06:33:56.871Z,8.662886
2022-08-04T06:38:58.951Z,9.024758
2022-08-04T06:44:00.457Z,9.803566
2022-08-04T06:49:02.287Z,9.277626
2022-08-04T06:54:03.733Z,9.771786
2022-08-04T06:59:05.184Z,10.015128
2022-08-04T07:04:06.936Z,11.321154
2022-08-04T07:09:08.754Z,11.94641
2022-08-04T07:14:10.367Z,12.211044
2022-08-04T07:19:14.780Z,12.5394
2022-08-04T07:24:20.116Z,12.388452
2022-08-04T07:29:21.590Z,12.04935
2022-08-04T07:34:23.051Z,12.952212
2022-08-04T07:39:28.666Z,12.421114
2022-08-04T07:44:30.771Z,13.999834
2022-08-04T07:49:54.207Z,13.145848
2022-08-04T07:54:59.276Z,13.861358
2022-08-04T08:00:01.070Z,14.192712
2022-08-04T08:05:02.821Z,13.224946
2022-08-04T08:10:04.446Z,13.880232
2022-08-04T08:15:05.908Z,14.26155
2022-08-04T08:20:09.708Z,14.68382
2022-08-04T08:25:11.280Z,15.479838
2022-08-04T08:30:12.944Z,15.657518
2022-08-04T08:35:15.869Z,16.133822
2022-08-04T08:40:17.839Z,16.598376
2022-08-04T08:45:33.896Z,16.142914
2022-08-04T08:50:35.367Z,16.552754
2022-08-04T08:55:36.972Z,17.498132
2022-08-04T09:00:38.535Z,17.098712
2022-08-04T09:05:40.205Z,17.7881
2022-08-04T09:10:42.238Z,17.623474
2022-08-04T09:15:43.814Z,18.2036
2022-08-04T09:20:45.304Z,17.347266
2022-08-04T09:25:47.005Z,18.02493
2022-08-04T09:30:48.670Z,17.091114
2022-08-04T09:35:50.169Z,17.23719
2022-08-04T09:40:53.176Z,18.206776
2022-08-04T09:45:56.930Z,18.786712
2022-08-04T09:50:58.380Z,17.750486
2022-08-04T09:56:03.003Z,17.87884
2022-08-04T10:01:05.135Z,18.435654
2022-08-04T10:06:06.733Z,19.493442
2022-08-04T10:11:09.038Z,18.839674
2022-08-04T10:16:10.511Z,18.983308
2022-08-04T10:21:15.513Z,19.262502
2022-08-04T10:26:17.518Z,19.34073
2022-08-04T10:31:18.975Z,19.560612
2022-08-04T10:36:20.664Z,18.831112
2022-08-04T10:41:22.497Z,18.047184
2022-08-04T10:46:24.010Z,18.355064
2022-08-04T10:51:25.695Z,18.44731
2022-08-04T10:56:27.346Z,18.758732
2022-08-04T11:02:00.838Z,18.494274
2022-08-04T11:07:04.770Z,18.53805
2022-08-04T11:12:07.333Z,18.50494
2022-08-04T11:17:09.046Z,19.408416
2022-08-04T11:22:10.553Z,18.80765
2022-08-04T11:27:12.433Z,19.500512
2022-08-04T11:32:13.987Z,19.622842
2022-08-04T11:37:15.958Z,19.731792
2022-08-04T11:42:17.849Z,18.74196
2022-08-04T11:47:19.523Z,19.847052
2022-08-04T11:52:21.752Z,19.820944
2022-08-04T11:57:25.620Z,19.57775
2022-08-04T12:02:38.460Z,20.863196
2022-08-04T12:07:41.666Z,19.812992
2022-08-04T12:12:43.825Z,19.651162
2022-08-04T12:17:52.672Z,19.897368
2022-08-04T12:22:55.373Z,19.920504
2022-08-04T12:27:57.628Z,20.119488
2022-08-04T12:32:59.481Z,19.790494
2022-08-04T12:38:00.936Z,20.376428
2022-08-04T12:43:02.829Z,19.18449
2022-08-04T12:48:04.384Z,19.326876
2022-08-04T12:53:05.852Z,19.525304
2022-08-04T12:58:07.345Z,19.93349
2022-08-04T13:03:10.223Z,20.336452
2022-08-04T13:08:13.414Z,19.879456
2022-08-04T13:13:15.074Z,19.555564
2022-08-04T13:18:16.736Z,19.354042
2022-08-04T13:23:21.720Z,19.495546
2022-08-04T13:28:23.759Z,20.047366
2022-08-04T13:33:25.245Z,20.38229
2022-08-04T13:38:26.851Z,19.238334
2022-08-04T13:44:16.792Z,19.098948
2022-08-04T13:49:43.073Z,20.034814
2022-08-04T13:55:02.774Z,19.186078
2022-08-04T14:00:04.735Z,19.441878
2022-08-04T14:05:06.403Z,19.315206
2022-08-04T14:10:20.737Z,19.639356
2022-08-04T14:15:22.622Z,19.363066
2022-08-04T14:20:24.335Z,19.2084
2022-08-04T14:25:30.255Z,18.848684
2022-08-04T14:30:37.681Z,18.430986
2022-08-04T14:35:50.147Z,18.95222
2022-08-04T14:40:52.560Z,18.27845
2022-08-04T14:45:55.472Z,18.543192
2022-08-04T14:50:57.495Z,18.05671
2022-08-04T14:55:59.247Z,18.003232
2022-08-04T15:01:01.241Z,17.813964
2022-08-04T15:06:15.286Z,17.446582
2022-08-04T15:11:23.452Z,17.170644
2022-08-04T15:16:25.928Z,17.546942
2022-08-04T15:21:27.561Z,17.177796
2022-08-04T15:26:29.681Z,16.92437
2022-08-04T15:32:06.536Z,17.128728
2022-08-04T15:37:10.723Z,16.98272
2022-08-04T15:42:17.489Z,16.562022
2022-08-04T15:47:23.114Z,16.67925
2022-08-04T15:52:25.170Z,16.345764
2022-08-04T15:57:33.940Z,16.229772
2022-08-04T16:02:36.044Z,15.619562
2022-08-04T16:07:38.066Z,15.909354
2022-08-04T16:12:53.814Z,15.373994
2022-08-04T16:17:56.649Z,15.47639
2022-08-04T16:22:58.402Z,15.447704
2022-08-04T16:28:00.315Z,15.203642
2022-08-04T16:33:02.490Z,14.907052
2022-08-04T16:38:04.182Z,14.855854
2022-08-04T16:43:05.935Z,14.608088
2022-08-04T16:48:08.241Z,13.98226
2022-08-04T16:53:10.024Z,13.830092
2022-08-04T16:58:53.016Z,13.456902
2022-08-04T17:03:57.765Z,13.688426
2022-08-04T17:08:59.604Z,13.473226
2022-08-04T17:14:05.403Z,13.025988
2022-08-04T17:19:24.303Z,12.334688
2022-08-04T17:24:28.410Z,12.806908
2022-08-04T17:29:43.966Z,12.996678
2022-08-04T17:34:46.951Z,12.975496
2022-08-04T17:39:50.762Z,12.783962
2022-08-04T17:44:52.604Z,12.64406
2022-08-04T17:49:54.932Z,12.151364
2022-08-04T17:54:57.535Z,12.297712
2022-08-04T18:00:04.436Z,11.997512
2022-08-04T18:05:11.879Z,12.45676
2022-08-04T18:10:31.087Z,12.356686
2022-08-04T18:15:44.112Z,11.933614
2022-08-04T18:20:50.100Z,12.212536
2022-08-04T18:25:52.424Z,11.955678
2022-08-04T18:30:56.294Z,11.472426
2022-08-04T18:36:32.664Z,11.700598
2022-08-04T18:42:01.416Z,11.386368
2022-08-04T18:47:19.534Z,10.866816
2022-08-04T18:52:31.989Z,11.322374
2022-08-04T18:57:59.001Z,10.734528
2022-08-04T19:03:02.788Z,10.641848
2022-08-04T19:08:33.530Z,10.626854
2022-08-04T19:13:36.998Z,10.693766
2022-08-04T19:18:39.089Z,10.97665
2022-08-04T19:24:10.860Z,10.37822
2022-08-04T19:29:37.125Z,10.516792
2022-08-04T19:34:39.218Z,10.243448
2022-08-04T19:39:41.050Z,10.35157
2022-08-04T19:44:43.835Z,10.330836
2022-08-04T19:50:03.760Z,10.543552
2022-08-04T19:55:10.038Z,10.592972
2022-08-04T20:00:13.258Z,9.88775
2022-08-04T20:05:17.986Z,10.184746
2022-08-04T20:10:52.513Z,9.883326
2022-08-04T20:15:58.086Z,9.786522
2022-08-04T20:21:00.124Z,9.79887
2022-08-04T20:26:02.676Z,9.962004
2022-08-04T20:31:05.206Z,8.956516
2022-08-04T20:36:09.748Z,9.125104
2022-08-04T20:41:11.822Z,8.73498
2022-08-04T20:46:18.189Z,9.27426
2022-08-04T20:51:32.087Z,8.834878
2022-08-04T20:56:35.780Z,9.159082
2022-08-04T21:01:49.000Z,8.887392
2022-08-04T21:06:51.557Z,8.668936
2022-08-04T21:11:53.644Z,8.852966
2022-08-04T21:16:56.458Z,8.583164
2022-08-04T21:21:58.705Z,8.634796
2022-08-04T21:27:01.014Z,8.623764
2022-08-04T21:32:04.077Z,7.543602
2022-08-04T21:37:09.253Z,8.685708
2022-08-04T21:42:28.384Z,8.328532
2022-08-04T21:47:46.361Z,8.362348
2022-08-04T21:52:51.474Z,7.963242
2022-08-04T21:57:54.085Z,8.04417
2022-08-04T22:02:55.941Z,8.237902
2022-08-04T22:07:58.421Z,7.627124
2022-08-04T22:13:06.715Z,7.592698
2022-08-04T22:18:12.992Z,7.878228
2022-08-04T22:23:16.861Z,7.91458
2022-08-04T22:28:21.254Z,7.686708
2022-08-04T22:33:54.978Z,6.175202
2022-08-04T22:39:06.484Z,7.08167
2022-08-04T22:44:13.604Z,7.060178
2022-08-04T22:49:17.310Z,7.440572
2022-08-04T22:54:18.956Z,7.056512
2022-08-04T22:59:21.446Z,7.51074
2022-08-04T23:04:23.142Z,6.565908
2022-08-04T23:09:49.159Z,7.358056
2022-08-04T23:14:53.039Z,7.489
2022-08-04T23:19:57.868Z,6.764784
2022-08-04T23:25:00.441Z,6.756994
2022-08-04T23:30:05.720Z,6.7011
2022-08-04T23:35:07.149Z,7.093112
2022-08-04T23:40:32.278Z,6.49
2022-08-04T23:46:04.022Z,7.427628
2022-08-04T23:51:15.111Z,6.168432
2022-08-04T23:56:19.678Z,6.403508
